Time;durP1;ratioP1;P1;durP2;ratioP2;P2;SDS_P1;SDS_P2;PMS_P1;PMS_P2;Temp;Humidity;BMP_temperature;BMP_pressure;BME280_temperature;BME280_humidity;BME280_pressure;Samples;Min_cycle;Max_cycle;Signal;HPM_P1;HPM_P2
2022/10/13 00:02:14;;;;;;;6.50;4.42;;;16.00;99.90;;;;;;1942735;72;22232;-81
2022/10/13 00:05:06;;;;;;;7.25;4.45;;;15.90;99.90;;;;;;1907901;74;21133;-81
2022/10/13 00:10:39;;;;;;;7.22;4.00;;;16.00;99.90;;;;;;1933076;72;22233;-81
2022/10/13 00:13:30;;;;;;;11.48;5.28;;;15.90;99.90;;;;;;1884868;75;21114;-81
2022/10/13 00:16:22;;;;;;;9.25;5.05;;;15.90;99.90;;;;;;1891359;75;21503;-80
2022/10/13 00:21:55;;;;;;;11.57;5.50;;;15.80;99.90;;;;;;1959469;72;22181;-83
2022/10/13 00:24:53;;;;;;;8.25;4.33;;;15.70;99.90;;;;;;1928926;73;21160;-83
2022/10/13 00:27:44;;;;;;;8.05;5.00;;;15.70;99.90;;;;;;1924992;73;21111;-82
2022/10/13 00:30:36;;;;;;;7.65;4.85;;;15.70;99.90;;;;;;1940701;72;21092;-81
2022/10/13 00:36:08;;;;;;;9.90;6.15;;;15.60;99.90;;;;;;1950061;72;22143;-81
2022/10/13 00:41:39;;;;;;;11.15;5.70;;;15.70;99.90;;;;;;1936498;72;22115;-80
2022/10/13 00:45:05;;;;;;;9.75;5.00;;;15.70;99.90;;;;;;1908230;74;21173;-82
2022/10/13 00:48:00;;;;;;;7.67;4.80;;;15.70;99.90;;;;;;1890621;75;21060;-81
2022/10/13 00:50:53;;;;;;;6.92;4.67;;;15.70;99.90;;;;;;1894657;75;21062;-82
2022/10/13 00:53:47;;;;;;;8.53;4.12;;;15.70;99.90;;;;;;1873115;75;21096;-82
2022/10/13 00:56:38;;;;;;;10.18;4.50;;;15.70;99.90;;;;;;1894911;75;21091;-82
2022/10/13 00:59:31;;;;;;;7.05;4.67;;;15.60;99.90;;;;;;1841910;77;21106;-82
2022/10/13 01:02:24;;;;;;;10.30;4.72;;;15.70;99.90;;;;;;1837813;77;21099;-81
2022/10/13 01:05:15;;;;;;;8.05;4.92;;;15.70;99.90;;;;;;1903266;74;21126;-81
2022/10/13 01:10:51;;;;;;;9.03;5.15;;;15.70;99.90;;;;;;1933873;72;22189;-81
2022/10/13 01:13:46;;;;;;;7.08;5.03;;;15.70;99.90;;;;;;1901216;75;21114;-81
2022/10/13 01:16:41;;;;;;;7.72;4.85;;;15.70;99.90;;;;;;1888478;75;21065;-80
2022/10/13 01:20:01;;;;;;;9.80;5.40;;;15.70;99.90;;;;;;1892083;75;21566;-81
2022/10/13 01:25:49;;;;;;;7.70;5.28;;;15.80;99.90;;;;;;1931694;72;22170;-81
2022/10/13 01:31:47;;;;;;;7.45;5.17;;;15.90;99.90;;;;;;1942326;72;22604;-81
2022/10/13 01:34:42;;;;;;;11.30;5.30;;;15.80;99.90;;;;;;1895599;75;21167;-82
2022/10/13 01:37:37;;;;;;;7.47;5.15;;;15.80;99.90;;;;;;1889442;75;21145;-82
2022/10/13 01:40:31;;;;;;;7.72;5.08;;;15.90;99.90;;;;;;1881342;75;21146;-81
2022/10/13 01:46:06;;;;;;;9.50;5.33;;;15.90;99.90;;;;;;1945691;72;22241;-81
2022/10/13 01:49:00;;;;;;;9.85;4.90;;;15.90;99.90;;;;;;1913655;74;21043;-80
2022/10/13 01:51:52;;;;;;;11.95;5.67;;;15.80;99.90;;;;;;1906986;75;21091;-81
2022/10/13 01:57:32;;;;;;;7.20;4.70;;;15.80;99.90;;;;;;1943313;72;22162;-81
2022/10/13 02:03:11;;;;;;;7.67;5.00;;;15.90;99.90;;;;;;1952973;72;22142;-81
2022/10/13 02:06:06;;;;;;;8.30;4.65;;;15.80;99.90;;;;;;1925970;73;21055;-81
2022/10/13 02:09:04;;;;;;;9.35;4.28;;;15.80;99.90;;;;;;1905592;74;21091;-80
2022/10/13 02:11:58;;;;;;;6.90;3.90;;;15.90;99.90;;;;;;1917370;74;21125;-81
2022/10/13 02:14:54;;;;;;;4.08;3.67;;;15.80;99.90;;;;;;1910877;73;21202;-81
2022/10/13 02:20:30;;;;;;;5.83;3.87;;;15.80;99.90;;;;;;1951617;72;22204;-81
2022/10/13 02:26:01;;;;;;;7.45;3.85;;;15.80;99.90;;;;;;1942597;72;22595;-81
2022/10/13 02:28:53;;;;;;;6.15;3.60;;;15.70;99.90;;;;;;1918901;74;21058;-81
2022/10/13 02:31:46;;;;;;;6.78;3.98;;;15.60;99.90;;;;;;1907120;75;21118;-81
2022/10/13 02:37:18;;;;;;;6.97;4.00;;;15.60;99.90;;;;;;1952446;72;22109;-81
2022/10/13 02:40:12;;;;;;;5.70;3.77;;;15.50;99.90;;;;;;1918464;74;21173;-83
2022/10/13 02:43:03;;;;;;;6.47;3.75;;;15.50;99.90;;;;;;1905464;75;21076;-81
2022/10/13 02:45:55;;;;;;;6.97;3.40;;;15.50;99.90;;;;;;1912466;74;21121;-81
2022/10/13 02:48:46;;;;;;;6.42;3.75;;;15.40;99.90;;;;;;1920944;74;21175;-81
2022/10/13 02:51:39;;;;;;;6.37;3.60;;;15.30;99.90;;;;;;1906136;74;21157;-82
2022/10/13 02:54:30;;;;;;;6.90;3.90;;;15.30;99.90;;;;;;1917671;73;21184;-81
2022/10/13 02:57:22;;;;;;;6.28;3.92;;;15.20;99.90;;;;;;1904687;74;21110;-81
2022/10/13 03:00:17;;;;;;;6.15;3.77;;;15.20;99.90;;;;;;1932952;74;21081;-81
2022/10/13 03:05:48;;;;;;;5.58;4.10;;;15.20;99.90;;;;;;1949495;72;22645;-81
2022/10/13 03:08:39;;;;;;;9.35;4.10;;;15.20;99.90;;;;;;1932419;73;21062;-82
2022/10/13 03:11:31;;;;;;;6.42;4.65;;;15.20;99.90;;;;;;1926927;73;21126;-81
2022/10/13 03:17:06;;;;;;;5.08;4.08;;;15.20;99.90;;;;;;1947647;72;22191;-81
2022/10/13 03:19:58;;;;;;;6.87;4.10;;;15.20;99.90;;;;;;1890700;75;21095;-81
2022/10/13 03:22:50;;;;;;;8.20;4.28;;;15.30;99.90;;;;;;1892867;75;21133;-81
2022/10/13 03:25:41;;;;;;;4.83;3.75;;;15.30;99.90;;;;;;1898374;75;21517;-81
2022/10/13 03:28:33;;;;;;;7.28;4.20;;;15.30;99.90;;;;;;1884609;75;21102;-81
2022/10/13 03:31:24;;;;;;;7.35;4.00;;;15.30;99.90;;;;;;1901162;75;21091;-81
2022/10/13 03:36:57;;;;;;;8.90;4.17;;;15.40;99.90;;;;;;1946448;72;22216;-80
2022/10/13 03:39:48;;;;;;;8.68;3.65;;;15.30;99.90;;;;;;1903956;75;21197;-82
2022/10/13 03:42:39;;;;;;;7.15;3.72;;;15.30;99.90;;;;;;1893616;73;21164;-81
2022/10/13 03:45:31;;;;;;;6.90;3.37;;;15.30;99.90;;;;;;1884282;75;21190;-81
2022/10/13 03:48:22;;;;;;;9.18;3.80;;;15.30;99.90;;;;;;1899678;75;21122;-81
2022/10/13 03:51:16;;;;;;;9.73;4.15;;;15.30;99.90;;;;;;1897774;75;21115;-81
2022/10/13 03:56:46;;;;;;;7.00;3.52;;;15.40;99.90;;;;;;1943460;72;22205;-81
2022/10/13 04:02:16;;;;;;;5.00;2.90;;;15.30;99.90;;;;;;1946058;72;22154;-81
2022/10/13 04:05:10;;;;;;;4.53;3.17;;;15.20;99.90;;;;;;1908841;75;21107;-81
2022/10/13 04:10:42;;;;;;;6.05;3.95;;;15.10;99.90;;;;;;1934170;72;22127;-80
2022/10/13 04:13:34;;;;;;;5.08;3.92;;;15.20;99.90;;;;;;1888266;75;21102;-83
2022/10/13 04:16:27;;;;;;;6.53;3.95;;;15.10;99.90;;;;;;1881839;75;21192;-81
2022/10/13 04:19:19;;;;;;;8.35;3.75;;;15.00;99.90;;;;;;1899930;75;21055;-81
2022/10/13 04:22:10;;;;;;;5.75;3.62;;;15.00;99.90;;;;;;1888183;75;21148;-81
2022/10/13 04:27:43;;;;;;;5.72;3.52;;;15.00;99.90;;;;;;1949964;72;22138;-81
2022/10/13 04:30:35;;;;;;;6.15;3.80;;;15.00;99.90;;;;;;1922295;73;21062;-81
2022/10/13 04:33:27;;;;;;;5.67;3.52;;;15.00;99.90;;;;;;1928957;73;21046;-81
2022/10/13 04:36:19;;;;;;;5.33;3.90;;;15.00;99.90;;;;;;1940355;73;21118;-81
2022/10/13 04:39:12;;;;;;;5.10;3.52;;;14.90;99.90;;;;;;1922045;73;21125;-81
2022/10/13 04:42:03;;;;;;;9.13;4.20;;;14.90;99.90;;;;;;1945713;73;21128;-81
2022/10/13 04:44:56;;;;;;;6.50;3.95;;;14.80;99.90;;;;;;1925578;73;21083;-80
2022/10/13 04:50:31;;;;;;;7.92;3.92;;;14.80;99.90;;;;;;1937887;72;22737;-82
2022/10/13 04:56:04;;;;;;;5.78;3.98;;;14.70;99.90;;;;;;1933764;72;22273;-81
2022/10/13 04:58:56;;;;;;;7.28;4.40;;;14.70;99.90;;;;;;1905254;75;21156;-82
2022/10/13 05:01:47;;;;;;;5.65;4.00;;;14.70;99.90;;;;;;1887267;75;21102;-82
2022/10/13 05:04:39;;;;;;;10.38;4.22;;;14.70;99.90;;;;;;1878606;75;21555;-81
2022/10/13 05:07:31;;;;;;;6.50;3.60;;;14.70;99.90;;;;;;1878109;75;21519;-81
2022/10/13 05:10:23;;;;;;;6.83;4.28;;;14.70;99.90;;;;;;1898426;75;21090;-81
2022/10/13 05:13:14;;;;;;;8.00;4.42;;;14.70;99.90;;;;;;1896508;75;21168;-83
2022/10/13 05:16:12;;;;;;;6.55;4.20;;;14.70;99.90;;;;;;1888642;75;21176;-81
2022/10/13 05:19:03;;;;;;;5.45;3.87;;;14.70;99.90;;;;;;1889303;75;21094;-82
2022/10/13 05:21:55;;;;;;;6.05;3.95;;;14.70;99.90;;;;;;1872868;75;21107;-81
2022/10/13 05:27:26;;;;;;;9.80;4.25;;;14.70;99.90;;;;;;1954329;72;22237;-83
2022/10/13 05:30:18;;;;;;;6.40;3.80;;;14.70;99.90;;;;;;1903949;74;21610;-82
2022/10/13 05:35:47;;;;;;;6.75;4.70;;;14.70;99.90;;;;;;1941365;72;22505;-80
2022/10/13 05:38:40;;;;;;;5.90;4.35;;;14.70;99.90;;;;;;1875030;75;21121;-83
2022/10/13 05:41:31;;;;;;;6.67;4.30;;;14.70;99.90;;;;;;1879176;75;21109;-83
2022/10/13 05:44:25;;;;;;;5.78;4.62;;;14.60;99.90;;;;;;1884208;75;21138;-80
2022/10/13 05:47:17;;;;;;;13.22;4.47;;;14.60;99.90;;;;;;1898519;75;21142;-83
2022/10/13 05:50:10;;;;;;;6.22;4.12;;;14.60;99.90;;;;;;1887669;75;21090;-81
2022/10/13 05:53:02;;;;;;;7.62;4.37;;;14.70;99.90;;;;;;1895952;75;21225;-81
2022/10/13 05:55:56;;;;;;;6.30;4.60;;;14.70;99.90;;;;;;1898594;75;21087;-81
2022/10/13 06:01:33;;;;;;;7.92;4.37;;;14.70;99.90;;;;;;1954150;72;22182;-83
2022/10/13 06:04:27;;;;;;;8.63;4.50;;;14.80;99.90;;;;;;1908514;74;21058;-83
2022/10/13 06:07:19;;;;;;;6.87;4.62;;;14.80;99.90;;;;;;1927845;74;21043;-81
2022/10/13 06:10:12;;;;;;;7.35;3.98;;;14.70;99.90;;;;;;1925541;74;21183;-81
2022/10/13 06:15:43;;;;;;;7.05;4.10;;;14.80;99.90;;;;;;1921686;72;22161;-82
2022/10/13 06:21:12;;;;;;;6.25;4.10;;;14.90;99.90;;;;;;1934631;72;22130;-76
2022/10/13 06:24:03;;;;;;;6.35;4.60;;;14.90;99.90;;;;;;1911769;75;21136;-76
2022/10/13 06:26:54;;;;;;;5.97;4.20;;;15.00;99.90;;;;;;1876463;76;21125;-75
2022/10/13 06:29:46;;;;;;;10.48;4.55;;;15.00;99.90;;;;;;1903369;75;21043;-74
2022/10/13 06:32:37;;;;;;;10.53;4.72;;;15.00;99.90;;;;;;1872631;76;21170;-74
2022/10/13 06:40:48;;;;;;;7.03;4.80;;;15.10;99.90;;;;;;1949383;72;22679;-75
2022/10/13 06:43:39;;;;;;;9.13;4.92;;;15.10;99.90;;;;;;1901230;74;21102;-75
2022/10/13 06:46:32;;;;;;;6.97;4.87;;;15.10;99.90;;;;;;1884511;75;21103;-74
2022/10/13 06:52:05;;;;;;;10.32;5.65;;;15.20;99.90;;;;;;1949909;72;22125;-75
2022/10/13 06:54:56;;;;;;;13.78;5.28;;;15.20;99.90;;;;;;1897497;74;21093;-75
2022/10/13 06:57:50;;;;;;;8.15;5.03;;;15.20;99.90;;;;;;1899828;75;21095;-75
2022/10/13 07:00:42;;;;;;;9.65;5.45;;;15.30;99.90;;;;;;1886939;75;21087;-75
2022/10/13 07:03:35;;;;;;;13.60;6.05;;;15.30;99.90;;;;;;1886270;75;21173;-75
2022/10/13 07:06:26;;;;;;;9.43;5.30;;;15.40;99.90;;;;;;1909198;73;21146;-75
2022/10/13 07:09:19;;;;;;;8.78;4.97;;;15.40;99.90;;;;;;1908498;73;21092;-75
2022/10/13 07:12:11;;;;;;;9.25;4.87;;;15.50;99.90;;;;;;1883275;75;21055;-75
2022/10/13 07:15:03;;;;;;;10.55;4.97;;;15.60;99.90;;;;;;1894910;73;21051;-75
2022/10/13 07:17:55;;;;;;;9.85;5.33;;;15.60;99.90;;;;;;1899751;75;21083;-74
2022/10/13 07:20:46;;;;;;;9.80;5.37;;;15.70;99.90;;;;;;1879884;75;21071;-74
2022/10/13 07:26:17;;;;;;;13.83;6.00;;;15.70;99.90;;;;;;1933943;72;22236;-76
2022/10/13 07:31:47;;;;;;;12.95;6.37;;;15.80;99.90;;;;;;1940840;72;22216;-74
2022/10/13 07:34:38;;;;;;;12.90;5.87;;;15.80;99.90;;;;;;1895959;75;21123;-75
2022/10/13 07:37:30;;;;;;;10.65;5.25;;;15.90;99.90;;;;;;1906475;75;21164;-75
2022/10/13 07:40:21;;;;;;;8.13;5.25;;;15.90;99.90;;;;;;1901019;75;21136;-74
2022/10/13 07:43:13;;;;;;;9.80;4.90;;;16.00;99.90;;;;;;1890401;75;21035;-74
2022/10/13 07:46:06;;;;;;;10.82;5.75;;;15.90;99.90;;;;;;1902764;75;21065;-74
2022/10/13 07:48:58;;;;;;;9.30;5.00;;;16.00;99.90;;;;;;1904432;75;21055;-74
2022/10/13 07:51:49;;;;;;;7.05;4.78;;;16.10;99.90;;;;;;1906174;75;21110;-75
2022/10/13 07:57:19;;;;;;;11.95;5.10;;;16.20;99.90;;;;;;1929933;72;22296;-76
2022/10/13 08:00:13;;;;;;;9.50;4.62;;;16.20;99.90;;;;;;1904646;75;21219;-74
2022/10/13 08:05:44;;;;;;;7.62;4.47;;;16.20;99.90;;;;;;1934449;72;22300;-74
2022/10/13 08:11:15;;;;;;;10.45;5.50;;;16.40;99.90;;;;;;1935727;72;22205;-76
2022/10/13 08:14:08;;;;;;;10.20;4.95;;;16.50;99.90;;;;;;1899267;75;21353;-76
2022/10/13 08:17:00;;;;;;;9.50;6.20;;;16.60;99.90;;;;;;1922822;74;21027;-75
2022/10/13 08:19:52;;;;;;;12.43;6.50;;;16.70;99.90;;;;;;1915675;74;21158;-75
2022/10/13 08:22:45;;;;;;;7.37;4.12;;;16.80;99.90;;;;;;1927012;73;21143;-75
2022/10/13 08:25:39;;;;;;;6.67;3.98;;;16.90;99.90;;;;;;1923417;74;21157;-74
2022/10/13 08:28:30;;;;;;;7.47;3.92;;;16.90;99.90;;;;;;1926979;74;21113;-74
2022/10/13 08:31:22;;;;;;;8.85;4.40;;;17.00;99.90;;;;;;1921944;74;21039;-74
2022/10/13 08:34:14;;;;;;;13.05;5.03;;;17.10;99.90;;;;;;1921434;74;21024;-75
2022/10/13 08:37:06;;;;;;;8.48;3.83;;;17.10;99.90;;;;;;1918985;74;21209;-74
2022/10/13 08:42:37;;;;;;;7.62;4.17;;;17.10;99.90;;;;;;1933928;72;22113;-76
2022/10/13 08:45:30;;;;;;;10.43;4.17;;;17.10;99.90;;;;;;1944327;73;21055;-76
2022/10/13 08:51:04;;;;;;;8.30;4.00;;;17.00;99.90;;;;;;1953346;72;22214;-75
2022/10/13 08:53:57;;;;;;;8.38;4.22;;;17.20;99.90;;;;;;1895396;75;21168;-75
2022/10/13 08:56:49;;;;;;;14.60;5.15;;;17.30;99.90;;;;;;1905783;75;21180;-75
2022/10/13 08:59:41;;;;;;;9.33;4.97;;;17.40;99.90;;;;;;1921538;73;21164;-75
2022/10/13 09:02:32;;;;;;;8.98;5.10;;;17.40;99.90;;;;;;1897956;75;21517;-74
2022/10/13 09:08:12;;;;;;;7.92;5.05;;;17.70;99.90;;;;;;1944578;72;22562;-76
2022/10/13 09:11:04;;;;;;;6.15;4.45;;;17.80;99.90;;;;;;1899325;75;21185;-76
2022/10/13 09:16:40;;;;;;;12.63;5.55;;;18.10;99.90;;;;;;1945992;72;22369;-74
2022/10/13 09:19:35;;;;;;;8.58;5.00;;;18.10;99.90;;;;;;1926166;73;21490;-75
2022/10/13 09:22:29;;;;;;;10.70;4.40;;;18.00;99.90;;;;;;1928030;73;21191;-75
2022/10/13 09:28:04;;;;;;;10.20;6.33;;;18.00;99.90;;;;;;1938201;72;22173;-75
2022/10/13 09:31:04;;;;;;;10.32;5.05;;;18.20;99.90;;;;;;1896402;75;21103;-74
2022/10/13 09:34:01;;;;;;;9.18;5.12;;;18.10;99.90;;;;;;1895440;75;21101;-74
2022/10/13 09:37:01;;;;;;;14.68;5.62;;;18.10;99.90;;;;;;1894706;75;21101;-74
2022/10/13 09:40:04;;;;;;;8.90;5.40;;;18.30;99.90;;;;;;1898883;75;21098;-74
2022/10/13 09:42:55;;;;;;;7.45;4.25;;;18.30;99.90;;;;;;1905601;75;21538;-74
2022/10/13 09:45:47;;;;;;;10.05;4.37;;;18.50;99.90;;;;;;1890893;75;21138;-74
2022/10/13 09:48:41;;;;;;;11.73;4.40;;;18.60;99.90;;;;;;1895486;75;21182;-74
2022/10/13 09:51:36;;;;;;;11.60;4.97;;;18.70;99.90;;;;;;1917405;75;21055;-74
2022/10/13 09:54:31;;;;;;;8.03;5.22;;;18.60;99.90;;;;;;1899357;75;21117;-74
2022/10/13 09:57:29;;;;;;;8.38;5.25;;;18.70;99.90;;;;;;1907290;75;21098;-74
2022/10/13 10:00:23;;;;;;;10.68;5.60;;;18.90;99.90;;;;;;1912772;75;21510;-74
2022/10/13 10:03:18;;;;;;;6.92;4.30;;;19.10;99.90;;;;;;1895330;75;21116;-75
2022/10/13 10:06:12;;;;;;;6.25;4.05;;;19.20;99.90;;;;;;1898035;75;21133;-74
2022/10/13 10:09:08;;;;;;;13.13;4.28;;;19.10;99.90;;;;;;1884491;75;21089;-74
2022/10/13 10:12:01;;;;;;;5.12;3.83;;;19.20;99.90;;;;;;1884428;75;21568;-74
2022/10/13 10:14:52;;;;;;;7.72;4.03;;;19.10;99.90;;;;;;1889347;75;21168;-74
2022/10/13 10:17:46;;;;;;;5.65;4.60;;;19.10;99.90;;;;;;1895744;75;21059;-74
2022/10/13 10:20:49;;;;;;;8.40;4.92;;;19.00;99.90;;;;;;1901609;75;21205;-74
2022/10/13 10:23:48;;;;;;;7.47;3.87;;;19.10;99.90;;;;;;1903485;75;21080;-74
2022/10/13 10:26:46;;;;;;;10.35;4.75;;;19.20;99.90;;;;;;1828988;76;21057;-75
2022/10/13 10:29:43;;;;;;;9.73;5.37;;;19.40;99.90;;;;;;1828688;77;21108;-75
2022/10/13 10:32:39;;;;;;;8.68;4.25;;;19.40;99.90;;;;;;1906952;75;21553;-75
2022/10/13 10:35:35;;;;;;;7.87;4.37;;;19.40;99.90;;;;;;1905499;75;21059;-75
2022/10/13 10:38:33;;;;;;;9.15;4.15;;;19.50;99.90;;;;;;1884646;76;21164;-75
2022/10/13 10:41:37;;;;;;;8.65;3.90;;;19.40;99.90;;;;;;1884361;75;21101;-75
2022/10/13 10:44:33;;;;;;;6.78;4.28;;;19.50;99.90;;;;;;1893930;75;21055;-74
2022/10/13 10:47:28;;;;;;;7.97;4.45;;;19.60;99.90;;;;;;1899025;75;21149;-74
2022/10/13 10:50:21;;;;;;;7.78;3.77;;;19.70;99.90;;;;;;1894706;75;21161;-74
2022/10/13 10:53:17;;;;;;;6.37;3.70;;;19.70;99.90;;;;;;1898257;75;21166;-74
2022/10/13 10:56:15;;;;;;;7.35;3.52;;;19.60;99.90;;;;;;1898882;75;21569;-74
2022/10/13 10:59:19;;;;;;;6.75;3.52;;;19.40;99.90;;;;;;1906645;75;21109;-74
2022/10/13 11:02:21;;;;;;;6.60;3.70;;;19.30;99.90;;;;;;1905997;75;21095;-74
2022/10/13 11:05:13;;;;;;;5.62;3.80;;;19.10;99.90;;;;;;1905997;75;21106;-75
2022/10/13 11:08:08;;;;;;;6.50;3.30;;;19.10;99.90;;;;;;1906050;75;21059;-75
2022/10/13 11:11:39;;;;;;;8.40;3.60;;;19.20;99.90;;;;;;1899596;75;21091;-74
2022/10/13 11:14:35;;;;;;;6.67;3.70;;;19.20;99.90;;;;;;1906631;75;21491;-75
2022/10/13 11:17:30;;;;;;;5.05;3.55;;;19.20;99.90;;;;;;1901236;75;21054;-74
2022/10/13 11:23:43;;;;;;;5.17;3.72;;;19.50;99.90;;;;;;1958158;72;22177;-76
2022/10/13 11:26:43;;;;;;;7.33;4.28;;;19.60;99.90;;;;;;1895432;75;21103;-76
2022/10/13 11:29:55;;;;;;;6.00;3.87;;;19.70;99.90;;;;;;1888973;75;21076;-76
2022/10/13 11:32:55;;;;;;;4.80;3.92;;;19.80;99.90;;;;;;1890593;75;21141;-75
2022/10/13 11:35:46;;;;;;;6.40;4.17;;;19.80;99.90;;;;;;1895282;75;21057;-75
2022/10/13 11:38:40;;;;;;;6.17;4.12;;;19.80;99.90;;;;;;1898253;75;21162;-75
2022/10/13 11:41:35;;;;;;;7.87;3.65;;;20.00;99.90;;;;;;1899074;75;21086;-75
2022/10/13 11:44:30;;;;;;;7.28;3.67;;;20.00;99.90;;;;;;1885477;75;21142;-75
2022/10/13 11:47:29;;;;;;;6.50;3.70;;;20.10;99.90;;;;;;1884841;75;21098;-73
2022/10/13 11:50:24;;;;;;;6.55;3.20;;;20.20;99.90;;;;;;1884657;75;21594;-75
2022/10/13 11:53:19;;;;;;;6.72;3.72;;;20.20;99.90;;;;;;1884654;76;21216;-74
2022/10/13 11:56:23;;;;;;;6.33;3.12;;;20.20;99.90;;;;;;1900284;75;21090;-74
2022/10/13 11:59:23;;;;;;;5.75;3.65;;;20.30;99.90;;;;;;1897605;75;21106;-74
2022/10/13 12:02:16;;;;;;;4.78;3.10;;;20.20;99.90;;;;;;1885549;75;21049;-75
2022/10/13 12:05:20;;;;;;;5.67;3.15;;;20.20;99.90;;;;;;1884377;75;21072;-74
2022/10/13 12:08:11;;;;;;;7.42;3.30;;;20.20;99.90;;;;;;1886452;75;21114;-74
2022/10/13 12:11:06;;;;;;;5.20;3.75;;;20.30;99.90;;;;;;1898796;75;21105;-75
2022/10/13 12:13:57;;;;;;;4.28;2.90;;;20.40;99.90;;;;;;1898526;75;21091;-76
2022/10/13 12:16:54;;;;;;;6.50;3.33;;;20.40;99.90;;;;;;1886511;75;21460;-74
2022/10/13 12:19:45;;;;;;;7.20;3.60;;;20.50;99.90;;;;;;1907057;75;21067;-75
2022/10/13 12:22:38;;;;;;;8.13;3.80;;;20.70;99.90;;;;;;1907985;74;21619;-74
2022/10/13 12:25:32;;;;;;;8.60;3.50;;;20.80;99.90;;;;;;1911327;74;21114;-74
2022/10/13 12:28:25;;;;;;;9.63;3.37;;;20.80;99.90;;;;;;1906601;74;21112;-74
2022/10/13 12:31:21;;;;;;;6.10;3.10;;;20.60;99.90;;;;;;1897244;74;21104;-75
2022/10/13 12:34:22;;;;;;;5.12;3.62;;;20.60;99.90;;;;;;1915806;74;21598;-75
2022/10/13 12:37:16;;;;;;;5.58;3.47;;;20.60;99.90;;;;;;1915522;74;21094;-75
2022/10/13 12:40:14;;;;;;;7.40;3.45;;;20.80;99.90;;;;;;1911095;74;21142;-74
2022/10/13 12:43:06;;;;;;;5.78;3.35;;;20.90;99.90;;;;;;1913099;74;21525;-74
2022/10/13 12:45:57;;;;;;;6.97;3.20;;;20.90;99.90;;;;;;1897576;74;21107;-74
2022/10/13 12:48:50;;;;;;;4.85;2.87;;;20.80;99.90;;;;;;1901216;74;21124;-74
2022/10/13 12:51:42;;;;;;;9.43;3.60;;;20.80;99.90;;;;;;1913007;74;21529;-75
2022/10/13 12:54:35;;;;;;;6.12;3.20;;;20.80;99.90;;;;;;1907996;74;21132;-74
2022/10/13 12:57:34;;;;;;;8.93;3.75;;;20.90;99.90;;;;;;1904578;74;21055;-75
2022/10/13 13:00:27;;;;;;;3.37;2.85;;;20.90;99.90;;;;;;1904393;74;21170;-74
2022/10/13 13:03:24;;;;;;;7.03;3.58;;;21.00;99.90;;;;;;1925409;74;21059;-75
2022/10/13 13:06:29;;;;;;;8.85;3.92;;;21.00;99.90;;;;;;1913044;74;21143;-74
2022/10/13 13:09:43;;;;;;;7.47;3.55;;;21.00;99.90;;;;;;1910978;74;21157;-74
2022/10/13 13:12:37;;;;;;;6.08;3.33;;;21.00;99.90;;;;;;1908893;74;21059;-75
2022/10/13 13:15:36;;;;;;;8.13;3.15;;;21.00;99.90;;;;;;1906705;74;21204;-74
2022/10/13 13:18:38;;;;;;;7.90;3.40;;;21.10;99.90;;;;;;1917904;74;21157;-75
2022/10/13 13:21:29;;;;;;;6.97;3.80;;;21.10;99.90;;;;;;1915394;74;21168;-75
2022/10/13 13:24:21;;;;;;;7.72;3.75;;;21.00;99.90;;;;;;1883225;76;21092;-74
2022/10/13 13:27:26;;;;;;;6.40;3.92;;;21.00;99.90;;;;;;1900997;75;21092;-74
2022/10/13 13:30:38;;;;;;;8.70;3.83;;;21.00;99.90;;;;;;1900690;75;21054;-75
2022/10/13 13:33:34;;;;;;;5.60;3.83;;;21.00;99.90;;;;;;1900195;75;21134;-75
2022/10/13 13:36:31;;;;;;;4.85;3.50;;;21.10;99.90;;;;;;1896001;75;21157;-75
2022/10/13 13:39:29;;;;;;;5.90;3.67;;;21.10;99.90;;;;;;1882664;75;21051;-74
2022/10/13 13:42:21;;;;;;;4.78;3.52;;;21.10;99.90;;;;;;1878253;75;21561;-74
2022/10/13 13:45:15;;;;;;;6.37;3.72;;;21.20;99.90;;;;;;1883173;75;21142;-76
2022/10/13 13:48:12;;;;;;;6.53;3.45;;;21.00;99.90;;;;;;1901129;75;21039;-76
2022/10/13 13:51:04;;;;;;;6.20;3.30;;;20.80;99.90;;;;;;1896503;75;21538;-75
2022/10/13 13:53:57;;;;;;;8.75;3.90;;;20.80;99.90;;;;;;1895053;75;21141;-75
2022/10/13 13:56:51;;;;;;;7.22;3.62;;;20.90;99.90;;;;;;1882931;75;21060;-75
2022/10/13 13:59:47;;;;;;;5.70;3.27;;;21.00;99.90;;;;;;1895832;75;21070;-74
2022/10/13 14:02:43;;;;;;;9.78;3.40;;;21.10;99.90;;;;;;1900457;75;21075;-74
2022/10/13 14:05:40;;;;;;;6.50;3.42;;;21.20;99.90;;;;;;1895922;75;21596;-76
2022/10/13 14:08:34;;;;;;;7.95;4.17;;;21.20;99.90;;;;;;1882871;75;21092;-76
2022/10/13 14:11:30;;;;;;;6.47;3.62;;;21.10;99.90;;;;;;1888456;75;21071;-75
2022/10/13 14:14:25;;;;;;;5.78;3.58;;;21.10;99.90;;;;;;1883269;75;21064;-76
2022/10/13 14:17:19;;;;;;;5.70;3.27;;;21.00;99.90;;;;;;1884034;76;21047;-75
2022/10/13 14:20:14;;;;;;;8.00;3.70;;;21.00;99.90;;;;;;1884114;75;21166;-74
2022/10/13 14:23:08;;;;;;;7.05;3.40;;;21.10;99.90;;;;;;1908828;75;21103;-74
2022/10/13 14:26:04;;;;;;;7.78;3.98;;;20.90;99.90;;;;;;1894152;75;21145;-74
2022/10/13 14:28:58;;;;;;;5.97;3.77;;;20.80;99.90;;;;;;1891799;75;21077;-75
2022/10/13 14:31:51;;;;;;;5.33;3.92;;;20.70;99.90;;;;;;1886891;75;21138;-74
2022/10/13 14:34:46;;;;;;;9.25;4.03;;;20.70;99.90;;;;;;1895075;75;21569;-74
2022/10/13 14:37:39;;;;;;;6.78;4.47;;;20.70;99.90;;;;;;1894777;75;21059;-74
2022/10/13 14:40:34;;;;;;;10.98;6.37;;;20.60;99.90;;;;;;1882642;75;21527;-75
2022/10/13 14:43:29;;;;;;;8.45;4.50;;;20.70;99.90;;;;;;1886625;75;21062;-74
2022/10/13 14:46:20;;;;;;;10.50;4.60;;;20.80;99.90;;;;;;1885096;75;21542;-74
2022/10/13 14:49:14;;;;;;;6.47;4.08;;;20.80;99.90;;;;;;1882595;75;21094;-74
2022/10/13 14:52:09;;;;;;;8.28;4.55;;;20.60;99.90;;;;;;1882763;75;21152;-74
2022/10/13 14:55:04;;;;;;;8.33;4.03;;;20.50;99.90;;;;;;1883029;75;21055;-74
2022/10/13 14:57:59;;;;;;;8.75;4.08;;;20.50;99.90;;;;;;1889539;75;21064;-74
2022/10/13 15:00:54;;;;;;;7.75;3.72;;;20.60;99.90;;;;;;1872028;75;21057;-74
2022/10/13 15:03:48;;;;;;;7.60;4.17;;;20.70;99.90;;;;;;1879685;75;21133;-74
2022/10/13 15:06:43;;;;;;;11.73;4.33;;;20.80;99.90;;;;;;1882701;75;21071;-74
2022/10/13 15:09:39;;;;;;;7.35;3.98;;;20.80;99.90;;;;;;1882735;75;21125;-75
2022/10/13 15:12:35;;;;;;;8.25;3.47;;;20.80;99.90;;;;;;1889352;75;21089;-75
2022/10/13 15:15:28;;;;;;;6.08;3.98;;;20.70;99.90;;;;;;1884759;75;21153;-75
2022/10/13 15:18:22;;;;;;;7.20;3.67;;;20.60;99.90;;;;;;1894919;75;21154;-75
2022/10/13 15:21:15;;;;;;;4.87;3.50;;;20.70;99.90;;;;;;1879842;75;21122;-74
2022/10/13 15:24:07;;;;;;;9.05;3.65;;;20.60;99.90;;;;;;1872093;77;21055;-75
2022/10/13 15:26:58;;;;;;;6.62;3.40;;;20.50;99.90;;;;;;1890593;74;21676;-75
2022/10/13 15:29:51;;;;;;;9.00;3.30;;;20.40;99.90;;;;;;1903065;74;21105;-75
2022/10/13 15:32:43;;;;;;;9.15;3.92;;;20.40;99.90;;;;;;1922188;74;21102;-75
2022/10/13 15:35:35;;;;;;;10.03;3.52;;;20.30;99.90;;;;;;1914700;74;21055;-75
2022/10/13 15:38:26;;;;;;;10.98;3.60;;;20.20;99.90;;;;;;1909341;74;21576;-75
2022/10/13 15:41:18;;;;;;;12.20;3.52;;;20.00;99.90;;;;;;1904208;74;21152;-75
2022/10/13 15:44:09;;;;;;;9.60;3.52;;;20.00;99.90;;;;;;1903896;74;21082;-75
2022/10/13 15:47:01;;;;;;;13.38;4.12;;;19.90;99.90;;;;;;1922172;74;21187;-75
2022/10/13 15:49:54;;;;;;;8.00;3.30;;;20.00;99.90;;;;;;1893652;75;21130;-81
2022/10/13 15:52:46;;;;;;;9.98;3.85;;;20.00;99.90;;;;;;1905169;74;21055;-81
2022/10/13 15:55:39;;;;;;;8.23;3.70;;;19.90;99.90;;;;;;1904245;74;21232;-82
2022/10/13 15:58:30;;;;;;;7.33;4.00;;;19.90;99.90;;;;;;1904206;74;21110;-82
2022/10/13 16:01:21;;;;;;;8.60;4.12;;;19.90;99.90;;;;;;1907410;74;21110;-82
2022/10/13 16:04:13;;;;;;;10.20;5.08;;;19.80;99.90;;;;;;1907199;74;21089;-82
2022/10/13 16:07:05;;;;;;;7.67;5.00;;;19.70;99.90;;;;;;1903812;74;21058;-81
2022/10/13 16:09:56;;;;;;;8.73;4.35;;;19.70;99.90;;;;;;1904215;74;21133;-82
2022/10/13 16:12:48;;;;;;;8.68;3.95;;;19.70;99.90;;;;;;1906884;74;21117;-82
2022/10/13 16:15:40;;;;;;;6.37;3.90;;;19.60;99.90;;;;;;1893603;76;21192;-81
2022/10/13 16:18:33;;;;;;;9.15;4.33;;;19.60;99.90;;;;;;1902956;74;21479;-82
2022/10/13 16:21:25;;;;;;;8.10;4.17;;;19.50;99.90;;;;;;1900227;74;21095;-82
2022/10/13 16:24:17;;;;;;;8.83;4.08;;;19.50;99.90;;;;;;1915361;74;21586;-81
2022/10/13 16:27:10;;;;;;;7.47;4.10;;;19.50;99.90;;;;;;1899789;74;21506;-82
2022/10/13 16:30:02;;;;;;;5.90;3.67;;;19.40;99.90;;;;;;1884341;75;21089;-82
2022/10/13 16:32:54;;;;;;;7.67;3.83;;;19.40;99.90;;;;;;1882527;75;21098;-81
2022/10/13 16:35:45;;;;;;;8.23;3.83;;;19.30;99.90;;;;;;1880284;75;21068;-81
2022/10/13 16:38:39;;;;;;;5.25;3.30;;;19.20;99.90;;;;;;1891150;75;21048;-81
2022/10/13 16:41:30;;;;;;;9.48;3.90;;;19.20;99.90;;;;;;1898080;75;21078;-82
2022/10/13 16:44:21;;;;;;;5.67;3.90;;;19.20;99.90;;;;;;1894673;75;21047;-82
2022/10/13 16:47:13;;;;;;;9.50;4.15;;;19.20;99.90;;;;;;1894674;75;21181;-82
2022/10/13 16:50:08;;;;;;;6.92;4.15;;;19.10;99.90;;;;;;1883956;75;21213;-82
2022/10/13 16:53:00;;;;;;;6.87;3.70;;;19.00;99.90;;;;;;1899771;75;21052;-82
2022/10/13 16:55:51;;;;;;;7.42;3.95;;;19.00;99.90;;;;;;1894502;75;21087;-82